Time;durP1;ratioP1;P1;durP2;ratioP2;P2;SDS_P1;SDS_P2;PMS_P1;PMS_P2;Temp;Humidity;BMP_temperature;BMP_pressure;BME280_temperature;BME280_humidity;BME280_pressure;Samples;Min_cycle;Max_cycle;Signal;HPM_P1;HPM_P2
2022/01/14 09:30:57;;;;;;;40.80;23.13;;;1.10;99.90;;;;;;3163425;23;20978;-46
2022/01/14 09:33:23;;;;;;;37.37;20.40;;;1.20;99.90;;;;;;5053310;28;20458;-45
2022/01/14 09:35:48;;;;;;;51.00;25.10;;;1.30;99.90;;;;;;5053059;28;20192;-45
2022/01/14 09:38:14;;;;;;;47.57;25.00;;;1.40;99.90;;;;;;5053036;28;20188;-43
2022/01/14 09:40:43;;;;;;;47.17;24.33;;;1.50;99.90;;;;;;5053162;28;20183;-43
2022/01/14 09:43:12;;;;;;;46.37;22.63;;;1.70;99.90;;;;;;5052905;28;20184;-44
2022/01/14 09:45:39;;;;;;;41.40;22.10;;;1.80;99.90;;;;;;5053012;28;20450;-44
2022/01/14 09:48:05;;;;;;;47.13;23.73;;;1.80;99.90;;;;;;5053495;28;20419;-43
2022/01/14 09:50:31;;;;;;;55.33;24.90;;;1.90;99.90;;;;;;5052967;28;20467;-44
2022/01/14 09:52:56;;;;;;;52.80;25.90;;;2.00;99.90;;;;;;5051382;28;20211;-43
2022/01/14 09:55:24;;;;;;;55.77;27.80;;;2.10;99.90;;;;;;5052923;28;20246;-45
2022/01/14 09:57:53;;;;;;;62.13;31.37;;;2.10;99.90;;;;;;5052953;28;20233;-43
2022/01/14 10:00:22;;;;;;;59.53;28.53;;;2.20;99.90;;;;;;5052748;28;20411;-45
2022/01/14 10:02:49;;;;;;;62.07;28.60;;;2.30;99.90;;;;;;5052265;28;20427;-45
2022/01/14 10:05:35;;;;;;;65.73;30.50;;;2.30;99.90;;;;;;5051263;28;20445;-44
2022/01/14 10:08:18;;;;;;;74.17;32.60;;;2.40;99.90;;;;;;5051306;28;20952;-45
2022/01/14 10:10:48;;;;;;;64.10;30.53;;;2.50;99.90;;;;;;5051736;28;20403;-43
2022/01/14 10:13:16;;;;;;;69.67;30.77;;;2.50;99.90;;;;;;5051167;28;20804;-42
2022/01/14 10:15:58;;;;;;;63.47;29.90;;;2.60;99.90;;;;;;5052474;28;20431;-45
2022/01/14 10:18:24;;;;;;;78.57;35.83;;;2.70;99.90;;;;;;5054878;28;20401;-43
2022/01/14 10:20:50;;;;;;;61.20;28.37;;;2.70;99.90;;;;;;5056392;28;20792;-42
2022/01/14 10:23:16;;;;;;;68.77;33.73;;;2.80;99.90;;;;;;5056660;28;20177;-43
2022/01/14 10:25:56;;;;;;;73.63;35.80;;;2.80;99.90;;;;;;5056058;28;20623;-43
2022/01/14 10:28:22;;;;;;;66.57;35.07;;;2.90;99.90;;;;;;5056343;28;20484;-44
2022/01/14 10:30:49;;;;;;;73.37;34.93;;;3.00;99.90;;;;;;5055829;28;20449;-42
2022/01/14 10:33:20;;;;;;;86.37;40.07;;;3.10;99.90;;;;;;5056394;28;20543;-47
2022/01/14 10:35:46;;;;;;;84.97;37.57;;;3.10;99.90;;;;;;5054511;28;20536;-43
2022/01/14 10:38:18;;;;;;;87.67;39.00;;;3.30;99.90;;;;;;5054413;28;20512;-44
2022/01/14 10:41:05;;;;;;;90.23;46.93;;;3.30;99.90;;;;;;5056168;28;20393;-45
2022/01/14 10:43:33;;;;;;;73.73;35.63;;;3.30;99.90;;;;;;5055418;28;20191;-44
2022/01/14 10:46:03;;;;;;;85.97;42.53;;;3.50;99.90;;;;;;5055886;28;20258;-46
2022/01/14 10:48:35;;;;;;;92.83;44.07;;;3.50;99.90;;;;;;5055978;28;20638;-42
2022/01/14 10:51:06;;;;;;;80.20;41.17;;;3.60;99.90;;;;;;5054299;28;20186;-44
2022/01/14 10:53:48;;;;;;;77.03;41.57;;;3.70;99.90;;;;;;5055504;28;20198;-44
2022/01/14 10:56:18;;;;;;;82.47;42.63;;;3.80;99.90;;;;;;5055723;28;20766;-44
2022/01/14 10:58:50;;;;;;;77.90;41.17;;;3.80;99.90;;;;;;5055701;28;20167;-44
2022/01/14 11:01:22;;;;;;;79.87;42.13;;;3.90;99.90;;;;;;5055381;28;20164;-44
2022/01/14 11:03:57;;;;;;;92.57;42.97;;;3.90;99.90;;;;;;5055651;28;20164;-46
2022/01/14 11:06:39;;;;;;;74.13;41.63;;;3.90;99.90;;;;;;5055341;28;20287;-45
2022/01/14 11:09:06;;;;;;;74.33;40.83;;;4.00;99.90;;;;;;5055822;28;20247;-45
2022/01/14 11:11:38;;;;;;;86.73;42.53;;;4.00;99.90;;;;;;5055483;28;20191;-45
2022/01/14 11:14:04;;;;;;;77.23;42.63;;;4.00;99.90;;;;;;5055434;28;20194;-44
2022/01/14 11:16:32;;;;;;;111.27;49.60;;;4.10;99.90;;;;;;5055047;28;20741;-45
2022/01/14 11:19:00;;;;;;;114.23;51.97;;;4.30;99.90;;;;;;5055441;28;20531;-45
2022/01/14 11:24:20;;;;;;;119.37;50.43;;;4.30;99.90;;;;;;5055109;28;20191;-44
2022/01/14 11:26:48;;;;;;;123.47;48.53;;;4.20;99.90;;;;;;5055286;28;20203;-46
2022/01/14 11:29:16;;;;;;;114.93;48.17;;;4.20;99.90;;;;;;5054489;28;20635;-45
2022/01/14 11:31:43;;;;;;;111.53;48.77;;;4.20;99.90;;;;;;5053466;28;20199;-45
2022/01/14 11:34:29;;;;;;;107.37;44.23;;;4.20;99.90;;;;;;5054856;28;20180;-45
2022/01/14 11:36:59;;;;;;;87.60;41.03;;;4.20;99.90;;;;;;5054688;28;20576;-46
2022/01/14 11:39:28;;;;;;;99.73;42.63;;;4.20;99.90;;;;;;5054210;28;20566;-46
2022/01/14 11:42:05;;;;;;;154.60;66.27;;;4.20;99.90;;;;;;5054858;28;20176;-45
2022/01/14 11:45:00;;;;;;;88.27;36.37;;;4.20;99.90;;;;;;5054778;28;20179;-45
2022/01/14 11:47:36;;;;;;;69.43;32.57;;;4.20;99.90;;;;;;5055397;28;20165;-46
2022/01/14 11:50:05;;;;;;;73.70;33.10;;;4.10;99.90;;;;;;5055602;28;20190;-45
2022/01/14 11:52:42;;;;;;;72.20;31.03;;;4.10;99.90;;;;;;5054878;28;20207;-47
2022/01/14 11:55:24;;;;;;;80.33;32.33;;;4.20;99.90;;;;;;5054980;28;20160;-46
2022/01/14 11:58:03;;;;;;;82.87;35.23;;;4.20;99.90;;;;;;5053863;28;20216;-47
2022/01/14 12:00:33;;;;;;;72.27;30.80;;;4.30;99.90;;;;;;5053262;28;20598;-46
2022/01/14 12:03:25;;;;;;;74.07;32.57;;;4.30;99.90;;;;;;5055005;28;20224;-45
2022/01/14 12:05:53;;;;;;;69.47;32.37;;;4.30;99.90;;;;;;5054769;28;20290;-46
2022/01/14 12:08:30;;;;;;;78.20;33.27;;;4.30;99.90;;;;;;5053070;28;20194;-45
2022/01/14 12:11:07;;;;;;;74.43;33.03;;;4.40;99.90;;;;;;5053239;28;20200;-47
2022/01/14 12:13:49;;;;;;;91.80;35.77;;;4.40;99.90;;;;;;5052983;28;20210;-46
2022/01/14 12:18:58;;;;;;;76.50;30.30;;;4.30;99.90;;;;;;5054205;28;20228;-45
2022/01/14 12:21:43;;;;;;;77.07;32.20;;;4.30;99.90;;;;;;5054282;28;20181;-43
2022/01/14 12:24:18;;;;;;;82.50;33.40;;;4.30;99.90;;;;;;5052787;28;20214;-43
2022/01/14 12:27:11;;;;;;;85.23;32.93;;;4.30;99.90;;;;;;5053407;28;20295;-43
2022/01/14 12:30:00;;;;;;;105.30;31.13;;;4.30;99.90;;;;;;5054223;28;20191;-45
2022/01/14 12:32:28;;;;;;;71.53;29.47;;;4.30;99.90;;;;;;5054212;28;20193;-44
2022/01/14 12:35:10;;;;;;;75.93;30.77;;;4.30;99.90;;;;;;5054219;28;20183;-44
2022/01/14 12:37:51;;;;;;;85.93;31.77;;;4.30;99.90;;;;;;5053040;28;20184;-43
2022/01/14 12:40:30;;;;;;;67.37;31.87;;;4.30;99.90;;;;;;5054581;28;20152;-48
2022/01/14 12:43:02;;;;;;;78.93;34.07;;;4.30;99.90;;;;;;5053567;28;20196;-46
2022/01/14 12:45:36;;;;;;;81.67;32.60;;;4.30;99.90;;;;;;5053993;28;20205;-49
2022/01/14 12:48:21;;;;;;;96.73;32.63;;;4.30;99.90;;;;;;5052673;28;20542;-49
2022/01/14 12:50:47;;;;;;;69.03;31.10;;;4.30;99.90;;;;;;5052483;28;20177;-47
2022/01/14 12:53:19;;;;;;;91.70;33.10;;;4.40;99.90;;;;;;5036829;28;20299;-47
2022/01/14 12:55:48;;;;;;;85.60;33.40;;;4.40;99.90;;;;;;5052562;28;20667;-47
2022/01/14 12:58:14;;;;;;;82.27;33.17;;;4.30;99.90;;;;;;5036245;28;20543;-49
2022/01/14 13:00:42;;;;;;;88.17;33.60;;;4.40;99.90;;;;;;5053884;28;20202;-48
2022/01/14 13:03:13;;;;;;;82.97;31.73;;;4.40;99.90;;;;;;5053498;28;20180;-47
2022/01/14 13:05:39;;;;;;;74.67;32.13;;;4.30;99.90;;;;;;5053323;28;20200;-48
2022/01/14 13:08:05;;;;;;;69.93;30.73;;;4.40;99.90;;;;;;5052307;28;20226;-49
2022/01/14 13:10:32;;;;;;;78.07;33.73;;;4.40;99.90;;;;;;5052047;28;20188;-47
2022/01/14 13:13:01;;;;;;;80.70;31.47;;;4.40;99.90;;;;;;5054027;28;20211;-48
2022/01/14 13:15:27;;;;;;;79.17;32.90;;;4.40;99.90;;;;;;5052046;28;20671;-49
2022/01/14 13:17:58;;;;;;;77.10;32.73;;;4.40;99.90;;;;;;5053577;28;20270;-49
2022/01/14 13:20:25;;;;;;;71.97;30.83;;;4.40;99.90;;;;;;5052025;28;20165;-49
2022/01/14 13:22:51;;;;;;;69.37;30.03;;;4.40;99.90;;;;;;5035758;28;20196;-47
2022/01/14 13:25:21;;;;;;;78.83;32.80;;;4.50;99.90;;;;;;5053152;28;20201;-46
2022/01/14 13:27:55;;;;;;;73.93;31.03;;;4.40;99.90;;;;;;5051833;28;20195;-47
2022/01/14 13:30:34;;;;;;;75.70;30.97;;;4.40;99.90;;;;;;5051803;28;20195;-47
2022/01/14 13:33:05;;;;;;;82.60;33.93;;;4.50;99.90;;;;;;5051761;28;20214;-47
2022/01/14 13:35:39;;;;;;;73.40;30.10;;;4.40;99.90;;;;;;5053324;28;20557;-47
2022/01/14 13:38:08;;;;;;;72.37;32.30;;;4.40;99.90;;;;;;5053056;28;20648;-46
2022/01/14 13:40:43;;;;;;;84.03;32.40;;;4.40;99.90;;;;;;5052975;28;20183;-45
2022/01/14 13:43:17;;;;;;;77.33;30.17;;;4.40;99.90;;;;;;5053052;28;20172;-46
2022/01/14 13:45:46;;;;;;;88.73;31.63;;;4.40;99.90;;;;;;5051965;28;20570;-48
2022/01/14 13:48:23;;;;;;;77.20;33.80;;;4.40;99.90;;;;;;5052923;28;20200;-47
2022/01/14 13:51:07;;;;;;;71.00;31.27;;;4.40;99.90;;;;;;5051822;28;20223;-47
2022/01/14 13:53:42;;;;;;;82.37;32.60;;;4.40;99.90;;;;;;5055229;28;20195;-47
2022/01/14 13:56:12;;;;;;;85.50;33.43;;;4.40;99.90;;;;;;5055757;28;20684;-47
2022/01/14 13:58:42;;;;;;;70.83;29.63;;;4.40;99.90;;;;;;5055771;28;20176;-48
2022/01/14 14:01:09;;;;;;;69.20;30.53;;;4.40;99.90;;;;;;5056950;28;20200;-47
2022/01/14 14:03:53;;;;;;;69.23;29.53;;;4.40;99.90;;;;;;5057469;28;20238;-47
2022/01/14 14:06:31;;;;;;;83.33;32.90;;;4.50;99.90;;;;;;5055648;28;20195;-47
2022/01/14 14:09:11;;;;;;;81.63;34.60;;;4.50;99.90;;;;;;5056050;28;20157;-47
2022/01/14 14:12:26;;;;;;;84.47;32.93;;;4.50;99.90;;;;;;5056888;28;20161;-46
2022/01/14 14:20:49;;;;;;;69.67;29.77;;;4.40;99.90;;;;;;5015093;28;20241;-47
2022/01/14 14:23:22;;;;;;;72.80;30.47;;;4.40;99.90;;;;;;5024715;28;20558;-49
2022/01/14 14:25:50;;;;;;;77.63;31.50;;;4.40;99.90;;;;;;5055079;28;20577;-48
2022/01/14 14:28:17;;;;;;;77.63;32.17;;;4.40;99.90;;;;;;5055122;28;20188;-47
2022/01/14 14:30:48;;;;;;;69.30;30.30;;;4.50;99.90;;;;;;5057016;28;20196;-47
2022/01/14 14:33:15;;;;;;;77.50;30.93;;;4.50;99.90;;;;;;5056269;28;20704;-48
2022/01/14 14:35:43;;;;;;;74.87;30.20;;;4.40;99.90;;;;;;5054779;28;20200;-48
2022/01/14 14:38:16;;;;;;;70.53;28.27;;;4.40;99.90;;;;;;5056326;28;20210;-48
2022/01/14 14:40:43;;;;;;;68.83;27.07;;;4.50;99.90;;;;;;5054914;28;20558;-49
2022/01/14 14:43:10;;;;;;;71.47;27.13;;;4.50;99.90;;;;;;5054688;28;20299;-42
2022/01/14 14:45:36;;;;;;;70.37;29.00;;;4.50;99.90;;;;;;5056102;28;20208;-45
2022/01/14 14:48:03;;;;;;;69.97;29.07;;;4.50;99.90;;;;;;5038268;28;20659;-49
2022/01/14 14:50:30;;;;;;;73.07;28.30;;;4.50;99.90;;;;;;5056415;28;20687;-48
2022/01/14 14:52:57;;;;;;;70.87;29.33;;;4.50;99.90;;;;;;5055631;28;20246;-48
2022/01/14 14:55:24;;;;;;;70.77;30.67;;;4.50;99.90;;;;;;5056543;28;20262;-47
2022/01/14 14:57:50;;;;;;;68.20;30.30;;;4.50;99.90;;;;;;5057110;28;20670;-47
2022/01/14 15:00:20;;;;;;;71.20;30.63;;;4.60;99.90;;;;;;5055660;28;20229;-48
2022/01/14 15:02:50;;;;;;;75.70;29.60;;;4.50;99.90;;;;;;5056206;28;20675;-47
2022/01/14 15:05:17;;;;;;;69.00;28.80;;;4.50;99.90;;;;;;5055026;28;20275;-46
2022/01/14 15:07:42;;;;;;;67.80;28.17;;;4.60;99.90;;;;;;5057403;28;20184;-46
2022/01/14 15:10:14;;;;;;;58.30;26.33;;;4.50;99.90;;;;;;5055881;28;20294;-46
2022/01/14 15:12:40;;;;;;;66.63;28.63;;;4.50;99.90;;;;;;5054631;28;20193;-49
2022/01/14 15:15:09;;;;;;;68.33;29.43;;;4.50;99.90;;;;;;5053899;28;20639;-47
2022/01/14 15:20:26;;;;;;;61.33;26.70;;;4.50;99.90;;;;;;5055894;28;20157;-48
2022/01/14 15:22:54;;;;;;;63.67;27.13;;;4.50;99.90;;;;;;5053779;28;20670;-49
2022/01/14 15:25:21;;;;;;;69.33;27.23;;;4.50;99.90;;;;;;5054201;28;20543;-50
2022/01/14 15:27:47;;;;;;;60.70;28.20;;;4.50;99.90;;;;;;5037654;28;20181;-49
2022/01/14 15:30:15;;;;;;;70.87;27.33;;;4.50;99.90;;;;;;5053492;28;20207;-48
2022/01/14 15:32:40;;;;;;;67.93;28.17;;;4.50;99.90;;;;;;5054997;28;20334;-48
2022/01/14 15:35:06;;;;;;;72.83;27.70;;;4.50;99.90;;;;;;5037016;28;20574;-49
2022/01/14 15:37:32;;;;;;;75.97;28.17;;;4.50;99.90;;;;;;5055706;28;20523;-48
2022/01/14 15:40:03;;;;;;;87.27;27.47;;;4.40;99.90;;;;;;5053581;28;20180;-47
2022/01/14 15:42:29;;;;;;;90.33;30.43;;;4.50;99.90;;;;;;5053484;28;20620;-48
2022/01/14 15:44:54;;;;;;;70.00;27.80;;;4.40;99.90;;;;;;5054346;28;20212;-47
2022/01/14 15:47:20;;;;;;;83.80;28.23;;;4.40;99.90;;;;;;5054716;28;20267;-47
2022/01/14 15:49:46;;;;;;;74.07;27.27;;;4.50;99.90;;;;;;5054625;28;20176;-47
2022/01/14 15:52:11;;;;;;;81.33;28.50;;;4.40;99.90;;;;;;5054445;28;20203;-49
2022/01/14 15:54:38;;;;;;;74.67;27.80;;;4.40;99.90;;;;;;5054057;28;20177;-48
2022/01/14 15:57:04;;;;;;;90.97;31.13;;;4.40;99.90;;;;;;5054656;28;20196;-49
2022/01/14 15:59:30;;;;;;;87.63;29.27;;;4.40;99.90;;;;;;5055105;28;20636;-48
2022/01/14 16:01:55;;;;;;;72.57;28.17;;;4.40;99.90;;;;;;5054447;28;20169;-49
2022/01/14 16:04:21;;;;;;;80.03;30.03;;;4.40;99.90;;;;;;5054245;28;20196;-49
2022/01/14 16:06:47;;;;;;;76.87;29.37;;;4.40;99.90;;;;;;5054246;28;20668;-49
2022/01/14 16:09:13;;;;;;;80.80;28.93;;;4.40;99.90;;;;;;5054205;28;20180;-48
2022/01/14 16:11:38;;;;;;;78.40;29.70;;;4.40;99.90;;;;;;5052851;28;20176;-48
2022/01/14 16:14:20;;;;;;;77.20;30.00;;;4.30;99.90;;;;;;5053506;28;20184;-49
2022/01/14 16:16:49;;;;;;;81.07;29.80;;;4.30;99.90;;;;;;5052447;28;20219;-50
2022/01/14 16:19:15;;;;;;;79.63;30.20;;;4.30;99.90;;;;;;5054276;28;20184;-44
2022/01/14 16:21:41;;;;;;;76.47;31.17;;;4.50;99.90;;;;;;5054088;28;20537;-45
2022/01/14 16:24:08;;;;;;;76.77;29.40;;;4.20;99.90;;;;;;5053919;28;20199;-44
2022/01/14 16:26:33;;;;;;;71.20;28.20;;;4.30;99.90;;;;;;5052521;28;20207;-42
2022/01/14 16:28:59;;;;;;;74.27;29.17;;;4.20;99.90;;;;;;5052753;28;20276;-43
2022/01/14 16:31:25;;;;;;;76.97;29.20;;;4.30;99.90;;;;;;5053880;28;20203;-44
2022/01/14 16:33:52;;;;;;;70.57;28.37;;;4.20;99.90;;;;;;5036111;28;20253;-44
2022/01/14 16:36:18;;;;;;;79.70;31.00;;;4.20;99.90;;;;;;5054008;28;20196;-45
2022/01/14 16:38:43;;;;;;;78.93;29.97;;;4.20;99.90;;;;;;5054013;28;20222;-44
2022/01/14 16:41:10;;;;;;;85.03;33.47;;;4.20;99.90;;;;;;5053841;28;20168;-46
2022/01/14 16:43:36;;;;;;;84.00;36.90;;;4.20;99.90;;;;;;5052384;28;20222;-44
2022/01/14 16:46:04;;;;;;;111.57;44.90;;;4.20;99.90;;;;;;5052388;28;20200;-43
2022/01/14 16:48:31;;;;;;;98.13;43.23;;;4.20;99.90;;;;;;5052238;28;20199;-44
2022/01/14 16:50:56;;;;;;;89.50;40.10;;;4.20;99.90;;;;;;5054190;28;20188;-45
2022/01/14 16:53:28;;;;;;;94.90;39.90;;;4.10;99.90;;;;;;5052301;28;20227;-45
2022/01/14 16:55:55;;;;;;;99.97;36.50;;;4.10;99.90;;;;;;5053796;28;20282;-44
2022/01/14 16:58:20;;;;;;;88.70;37.30;;;4.10;99.90;;;;;;5053737;28;20251;-44
2022/01/14 17:00:46;;;;;;;109.13;44.60;;;4.10;99.90;;;;;;5052505;28;20311;-45
2022/01/14 17:03:13;;;;;;;110.90;44.43;;;4.10;99.90;;;;;;5053658;28;20212;-45
2022/01/14 17:06:03;;;;;;;116.53;54.90;;;4.00;99.90;;;;;;5055036;28;20200;-45
2022/01/14 17:08:30;;;;;;;87.13;38.50;;;4.10;99.90;;;;;;5055698;28;20164;-48
2022/01/14 17:10:56;;;;;;;76.67;32.90;;;4.00;99.90;;;;;;5053461;28;20179;-46
2022/01/14 17:13:24;;;;;;;77.53;32.67;;;4.00;99.90;;;;;;5053458;28;20204;-44
2022/01/14 17:15:49;;;;;;;87.90;39.30;;;4.00;99.90;;;;;;5053233;28;20187;-45
2022/01/14 17:18:16;;;;;;;96.47;42.50;;;4.00;99.90;;;;;;5051847;28;20180;-44
2022/01/14 17:20:43;;;;;;;80.53;36.67;;;4.00;99.90;;;;;;5053502;28;20175;-43
2022/01/14 17:23:11;;;;;;;85.47;36.30;;;4.00;99.90;;;;;;5053294;28;20172;-45
2022/01/14 17:25:42;;;;;;;82.63;33.60;;;3.90;99.90;;;;;;5053009;28;20218;-44
2022/01/14 17:28:09;;;;;;;86.17;34.87;;;4.00;99.90;;;;;;5055658;28;20179;-45
2022/01/14 17:30:36;;;;;;;78.27;34.60;;;3.90;99.90;;;;;;5057499;28;20196;-45
2022/01/14 17:33:02;;;;;;;90.13;39.37;;;3.90;99.90;;;;;;5056445;28;20196;-45
2022/01/14 17:35:29;;;;;;;87.00;35.57;;;3.90;99.90;;;;;;5057853;28;20241;-43
2022/01/14 17:37:56;;;;;;;77.50;37.17;;;3.90;99.90;;;;;;5058219;28;20188;-44
2022/01/14 17:40:24;;;;;;;73.90;33.47;;;3.90;99.90;;;;;;5056983;28;20259;-45
2022/01/14 17:42:51;;;;;;;74.70;30.10;;;3.90;99.90;;;;;;5057387;28;20260;-45
2022/01/14 17:45:23;;;;;;;80.40;31.30;;;3.90;99.90;;;;;;5057175;28;20230;-44
2022/01/14 17:47:51;;;;;;;91.93;33.80;;;3.90;99.90;;;;;;5055958;28;20180;-47
2022/01/14 17:50:20;;;;;;;90.50;32.50;;;3.90;99.90;;;;;;5059052;28;20254;-46
2022/01/14 17:59:35;;;;;;;79.50;28.93;;;3.90;99.90;;;;;;5056906;28;20172;-47
2022/01/14 18:02:02;;;;;;;69.30;29.40;;;3.90;99.90;;;;;;5055686;28;20225;-47
2022/01/14 18:04:29;;;;;;;83.50;30.23;;;3.90;99.90;;;;;;5057038;28;20187;-45
2022/01/14 18:07:02;;;;;;;77.00;29.33;;;3.90;99.90;;;;;;5056915;28;20196;-44
2022/01/14 18:09:31;;;;;;;86.30;30.50;;;3.90;99.90;;;;;;5057492;28;20239;-46
2022/01/14 18:12:08;;;;;;;77.83;31.83;;;3.90;99.90;;;;;;5055668;28;20173;-46
2022/01/14 18:14:37;;;;;;;79.10;29.97;;;3.90;99.90;;;;;;5055473;28;20177;-47
2022/01/14 18:17:04;;;;;;;82.53;31.13;;;3.90;99.90;;;;;;5057422;28;20196;-45
2022/01/14 18:19:31;;;;;;;77.03;29.90;;;3.90;99.90;;;;;;5056156;28;20176;-43
2022/01/14 18:21:59;;;;;;;69.53;29.43;;;3.80;99.90;;;;;;5055313;28;20230;-44
2022/01/14 18:24:30;;;;;;;79.33;30.07;;;3.80;99.90;;;;;;5055481;28;20180;-44
2022/01/14 18:26:56;;;;;;;82.53;31.00;;;3.80;99.90;;;;;;5055260;28;20291;-44
2022/01/14 18:29:24;;;;;;;77.77;30.07;;;3.80;99.90;;;;;;5055536;28;20195;-44
2022/01/14 18:31:52;;;;;;;77.10;30.10;;;3.80;99.90;;;;;;5038936;28;20642;-43
2022/01/14 18:34:19;;;;;;;79.90;29.43;;;3.80;99.90;;;;;;5055621;28;20153;-42
2022/01/14 18:36:55;;;;;;;78.33;29.40;;;3.80;99.90;;;;;;5055721;28;20200;-45
2022/01/14 18:39:48;;;;;;;79.73;29.00;;;3.80;99.90;;;;;;5057114;28;20180;-43
2022/01/14 18:42:35;;;;;;;74.57;28.87;;;3.80;99.90;;;;;;5057513;28;20211;-43
2022/01/14 18:45:28;;;;;;;70.93;27.70;;;3.80;99.90;;;;;;5055779;28;20223;-43
2022/01/14 18:48:00;;;;;;;75.63;28.73;;;3.70;99.90;;;;;;5056461;28;20176;-43
2022/01/14 18:50:28;;;;;;;69.23;28.90;;;3.70;99.90;;;;;;5057060;28;20646;-45
2022/01/14 18:53:02;;;;;;;67.47;28.13;;;3.70;99.90;;;;;;5056422;28;20219;-44
2022/01/14 18:55:29;;;;;;;77.63;30.27;;;3.70;99.90;;;;;;5054723;28;20203;-43
2022/01/14 18:57:55;;;;;;;75.10;29.40;;;3.70;99.90;;;;;;5055927;28;20184;-45
2022/01/14 19:00:22;;;;;;;69.20;28.80;;;3.70;99.90;;;;;;5038831;28;20586;-44
2022/01/14 19:02:58;;;;;;;70.63;28.23;;;3.70;99.90;;;;;;5055694;28;20195;-46
2022/01/14 19:05:25;;;;;;;76.10;28.47;;;3.70;99.90;;;;;;5039558;28;20246;-46
2022/01/14 19:07:54;;;;;;;69.17;26.90;;;3.70;99.90;;;;;;5056969;28;20242;-47
2022/01/14 19:10:22;;;;;;;79.97;27.07;;;3.70;99.90;;;;;;5056608;28;20275;-44
2022/01/14 19:12:49;;;;;;;64.70;28.10;;;3.70;99.90;;;;;;5055750;28;20659;-48
2022/01/14 19:15:16;;;;;;;78.20;28.10;;;3.70;99.90;;;;;;5056040;28;20204;-46
2022/01/14 19:17:43;;;;;;;71.83;26.90;;;3.70;99.90;;;;;;5056379;28;20188;-46
2022/01/14 19:20:11;;;;;;;68.67;34.20;;;3.70;99.90;;;;;;5057478;28;20183;-48
2022/01/14 19:22:38;;;;;;;73.37;27.30;;;3.70;99.90;;;;;;5055018;28;20191;-48
2022/01/14 19:25:06;;;;;;;69.57;27.63;;;3.70;99.90;;;;;;5057059;28;20195;-44
2022/01/14 19:27:33;;;;;;;66.47;26.30;;;3.70;99.90;;;;;;5056126;28;20263;-44
2022/01/14 19:30:00;;;;;;;68.03;29.07;;;3.70;99.90;;;;;;5055583;28;20230;-48
2022/01/14 19:32:28;;;;;;;69.30;28.20;;;3.70;99.90;;;;;;5056130;28;20212;-46
2022/01/14 19:34:57;;;;;;;69.97;31.97;;;3.70;99.90;;;;;;5056151;28;20643;-46
2022/01/14 19:38:15;;;;;;;81.63;35.80;;;3.70;99.90;;;;;;5057639;28;20161;-48
2022/01/14 19:40:41;;;;;;;105.30;41.57;;;3.70;99.90;;;;;;5058076;28;20180;-47
2022/01/14 19:43:09;;;;;;;88.60;38.63;;;3.60;99.90;;;;;;5056840;28;20188;-49
2022/01/14 19:45:35;;;;;;;76.07;30.10;;;3.60;99.90;;;;;;5054069;28;20287;-47
2022/01/14 19:48:04;;;;;;;74.60;30.10;;;3.70;99.90;;;;;;5055799;28;20619;-47
2022/01/14 19:50:30;;;;;;;76.63;30.37;;;3.70;99.90;;;;;;5055737;28;20180;-47
2022/01/14 19:52:56;;;;;;;71.40;29.57;;;3.60;99.90;;;;;;5057281;28;20264;-47
2022/01/14 19:55:23;;;;;;;66.07;27.90;;;3.60;99.90;;;;;;5055022;28;20212;-46
2022/01/14 19:57:49;;;;;;;62.03;26.73;;;3.70;99.90;;;;;;5054826;28;20525;-47
2022/01/14 20:00:16;;;;;;;76.30;27.37;;;3.60;99.90;;;;;;5053540;28;20181;-46
2022/01/14 20:02:44;;;;;;;75.93;28.53;;;3.60;99.90;;;;;;5054938;28;20216;-48
2022/01/14 20:05:13;;;;;;;65.23;26.70;;;3.60;99.90;;;;;;5055361;28;20192;-44
2022/01/14 20:07:40;;;;;;;60.10;26.20;;;3.60;99.90;;;;;;5053205;28;20769;-46
2022/01/14 20:10:07;;;;;;;59.10;23.47;;;3.60;99.90;;;;;;5054339;28;20263;-46
2022/01/14 20:12:36;;;;;;;40.37;21.47;;;3.60;99.90;;;;;;5054192;28;20276;-45
2022/01/14 20:15:03;;;;;;;65.33;26.23;;;3.60;99.90;;;;;;5052783;28;20184;-45
2022/01/14 20:17:29;;;;;;;56.43;26.37;;;3.60;99.90;;;;;;5054131;28;20222;-46
2022/01/14 20:19:56;;;;;;;64.63;25.50;;;3.60;99.90;;;;;;5052943;28;20188;-45
2022/01/14 20:22:22;;;;;;;57.23;26.17;;;3.60;99.90;;;;;;5054457;28;20593;-46
2022/01/14 20:24:48;;;;;;;52.07;25.87;;;3.60;99.90;;;;;;5054460;28;20183;-46
2022/01/14 20:27:14;;;;;;;43.67;23.07;;;3.60;99.90;;;;;;5054410;28;20204;-47
2022/01/14 20:29:39;;;;;;;50.40;26.13;;;3.60;99.90;;;;;;5055546;28;20230;-45
2022/01/14 20:32:05;;;;;;;56.73;27.13;;;3.60;99.90;;;;;;5055177;28;20184;-46
2022/01/14 20:34:32;;;;;;;46.40;25.87;;;3.60;99.90;;;;;;5055103;28;20194;-45
2022/01/14 20:36:58;;;;;;;57.13;27.60;;;3.60;99.90;;;;;;5055119;28;20238;-45
2022/01/14 20:39:24;;;;;;;60.03;28.30;;;3.50;99.90;;;;;;5054512;28;20588;-44
2022/01/14 20:41:49;;;;;;;51.50;25.83;;;3.50;99.90;;;;;;5054842;28;20176;-46
2022/01/14 20:44:17;;;;;;;64.37;30.93;;;3.60;99.90;;;;;;5053055;28;20180;-48
2022/01/14 20:46:43;;;;;;;39.80;23.17;;;3.50;99.90;;;;;;5053916;28;20219;-44
2022/01/14 20:49:11;;;;;;;43.70;23.70;;;3.50;99.90;;;;;;5054147;28;20172;-46
2022/01/14 20:51:38;;;;;;;40.37;20.93;;;3.50;99.90;;;;;;5054571;28;20204;-46
2022/01/14 20:54:04;;;;;;;40.20;20.10;;;3.50;99.90;;;;;;5052444;28;20212;-48
2022/01/14 20:56:30;;;;;;;54.27;24.70;;;3.50;99.90;;;;;;5053334;28;20219;-46
2022/01/14 20:58:56;;;;;;;50.50;24.30;;;3.50;99.90;;;;;;5054029;28;20275;-46
2022/01/14 21:01:23;;;;;;;56.97;26.37;;;3.50;99.90;;;;;;5053855;28;20669;-43
2022/01/14 21:03:50;;;;;;;55.47;26.97;;;3.50;99.90;;;;;;5054219;28;20183;-46
2022/01/14 21:06:18;;;;;;;58.97;28.20;;;3.50;99.90;;;;;;5052958;28;20234;-48
2022/01/14 21:08:44;;;;;;;66.87;30.77;;;3.50;99.90;;;;;;5053258;28;20180;-48
2022/01/14 21:11:10;;;;;;;60.00;25.97;;;3.40;99.90;;;;;;5054226;28;20560;-46
2022/01/14 21:13:58;;;;;;;51.83;24.17;;;3.50;99.90;;;;;;5053766;28;20647;-47
2022/01/14 21:16:24;;;;;;;50.93;24.90;;;3.40;99.90;;;;;;5052866;28;20206;-46
2022/01/14 21:18:51;;;;;;;50.87;24.90;;;3.40;99.90;;;;;;5055359;28;20184;-45
2022/01/14 21:21:18;;;;;;;60.03;25.70;;;3.50;99.90;;;;;;5054328;28;20176;-46
2022/01/14 21:23:44;;;;;;;65.67;27.27;;;3.40;99.90;;;;;;5054634;28;20191;-45
2022/01/14 21:26:10;;;;;;;63.90;25.80;;;3.40;99.90;;;;;;5052463;28;20291;-45
2022/01/14 21:28:36;;;;;;;56.47;23.13;;;3.40;99.90;;;;;;5052392;28;20670;-43
2022/01/14 21:31:03;;;;;;;61.23;25.87;;;3.40;99.90;;;;;;5053448;28;20212;-44
2022/01/14 21:33:31;;;;;;;61.70;27.00;;;3.40;99.90;;;;;;5035941;28;20218;-43
2022/01/14 21:35:59;;;;;;;70.33;25.90;;;3.40;99.90;;;;;;5052263;28;20656;-45
2022/01/14 21:38:26;;;;;;;71.47;25.20;;;3.40;99.90;;;;;;5052266;28;20184;-44
2022/01/14 21:40:52;;;;;;;68.47;26.33;;;3.40;99.90;;;;;;5054003;28;20168;-43
2022/01/14 21:43:20;;;;;;;80.10;28.40;;;3.40;99.90;;;;;;5053819;28;20257;-43
2022/01/14 21:45:50;;;;;;;75.03;27.63;;;3.40;99.90;;;;;;5036160;28;20548;-45
2022/01/14 21:48:17;;;;;;;69.93;26.30;;;3.30;99.90;;;;;;5052047;28;20180;-44
2022/01/14 21:50:43;;;;;;;74.10;27.00;;;3.30;99.90;;;;;;5051805;28;20299;-44
2022/01/14 21:53:09;;;;;;;62.77;24.73;;;3.30;99.90;;;;;;5035644;28;20234;-44
2022/01/14 21:55:35;;;;;;;76.07;26.43;;;3.30;99.90;;;;;;5053214;28;20196;-44
2022/01/14 21:58:01;;;;;;;84.20;28.20;;;3.30;99.90;;;;;;5053197;28;20547;-43
2022/01/14 22:00:27;;;;;;;75.10;26.60;;;3.30;99.90;;;;;;5052371;28;20297;-43
2022/01/14 22:02:53;;;;;;;71.93;24.17;;;3.30;99.90;;;;;;5053712;28;20263;-44
2022/01/14 22:05:19;;;;;;;77.47;26.30;;;3.30;99.90;;;;;;5053975;28;20192;-41
2022/01/14 22:07:44;;;;;;;86.77;27.13;;;3.30;99.90;;;;;;5054263;28;20549;-45
2022/01/14 22:10:11;;;;;;;78.93;28.67;;;3.20;99.90;;;;;;5053247;28;20184;-45
2022/01/14 22:12:40;;;;;;;76.83;29.27;;;3.30;99.90;;;;;;5051803;28;20314;-46
2022/01/14 22:15:26;;;;;;;69.40;26.70;;;3.30;99.90;;;;;;5056291;28;20184;-45
2022/01/14 22:17:53;;;;;;;67.57;26.07;;;3.30;99.90;;;;;;5055542;28;20199;-44
2022/01/14 22:20:19;;;;;;;77.80;26.47;;;3.30;99.90;;;;;;5057050;28;20747;-45
2022/01/14 22:22:45;;;;;;;71.43;28.67;;;3.30;99.90;;;;;;5056933;28;20267;-45
2022/01/14 22:25:11;;;;;;;79.40;27.07;;;3.30;99.90;;;;;;5055190;28;20243;-45
2022/01/14 22:27:38;;;;;;;77.73;27.60;;;3.20;99.90;;;;;;5056807;28;20202;-44
2022/01/14 22:30:06;;;;;;;67.57;25.73;;;3.20;99.90;;;;;;5055157;28;20199;-45
2022/01/14 22:32:32;;;;;;;72.27;27.37;;;3.30;99.90;;;;;;5055516;28;20303;-46
2022/01/14 22:34:57;;;;;;;81.57;29.93;;;3.20;99.90;;;;;;5056477;28;20180;-44
2022/01/14 22:37:23;;;;;;;84.83;28.70;;;3.30;99.90;;;;;;5056200;28;20202;-45
2022/01/14 22:39:49;;;;;;;94.40;31.40;;;3.20;99.90;;;;;;5056295;28;20177;-46